createdAt,value
2018-12-20T00:00:55.055Z,15.80
2018-12-20T00:03:45.857Z,16.13
2018-12-20T00:06:36.722Z,14.37
2018-12-20T00:09:26.294Z,14.83
2018-12-20T00:12:16.206Z,14.17
2018-12-20T00:15:06.107Z,14.97
2018-12-20T00:17:56.154Z,12.77
2018-12-20T00:20:46.100Z,16.13
2018-12-20T00:23:37.035Z,15.73
2018-12-20T00:26:27.779Z,15.87
2018-12-20T00:29:17.746Z,13.93
2018-12-20T00:32:07.697Z,14.20
2018-12-20T00:34:57.500Z,16.50
2018-12-20T00:37:47.904Z,14.70
2018-12-20T00:40:38.452Z,16.10
2018-12-20T00:43:28.233Z,17.97
2018-12-20T00:46:18.142Z,15.10
2018-12-20T00:49:08.122Z,14.80
2018-12-20T00:51:58.342Z,17.33
2018-12-20T00:54:48.148Z,13.57
2018-12-20T00:57:39.051Z,15.63
2018-12-20T01:00:28.964Z,17.37
2018-12-20T01:03:20.210Z,15.00
2018-12-20T01:06:10.913Z,17.70
2018-12-20T01:09:01.794Z,15.53
2018-12-20T01:11:52.508Z,15.17
2018-12-20T01:14:45.455Z,17.23
2018-12-20T01:17:39.166Z,17.13
2018-12-20T01:20:29.384Z,15.93
2018-12-20T01:23:20.296Z,19.03
2018-12-20T01:26:11.531Z,19.50
2018-12-20T01:29:02.368Z,17.13
2018-12-20T01:31:52.393Z,18.67
2018-12-20T01:34:42.153Z,20.27
2018-12-20T01:37:32.311Z,20.57
2018-12-20T01:40:22.833Z,19.00
2018-12-20T01:43:13.646Z,20.80
2018-12-20T01:46:03.465Z,20.37
2018-12-20T01:48:54.508Z,19.87
2018-12-20T01:51:45.259Z,21.30
2018-12-20T01:54:35.082Z,20.17
2018-12-20T01:57:24.830Z,20.50
2018-12-20T02:00:14.975Z,21.37
2018-12-20T02:03:05.820Z,20.83
2018-12-20T02:05:56.969Z,21.47
2018-12-20T02:08:47.630Z,18.20
2018-12-20T02:11:38.400Z,19.37
2018-12-20T02:14:28.973Z,20.43
2018-12-20T02:17:19.692Z,18.40
2018-12-20T02:20:10.767Z,22.13
2018-12-20T02:23:00.932Z,19.07
2018-12-20T02:25:52.641Z,21.33
2018-12-20T02:28:43.533Z,19.07
2018-12-20T02:31:34.314Z,19.57
2018-12-20T02:34:24.529Z,21.23
2018-12-20T02:37:15.204Z,22.23
2018-12-20T02:40:05.059Z,21.97
2018-12-20T02:42:54.764Z,22.37
2018-12-20T02:45:44.929Z,23.13
2018-12-20T02:48:35.844Z,22.67
2018-12-20T02:51:26.597Z,24.13
2018-12-20T02:54:17.167Z,22.00
2018-12-20T02:57:08.243Z,22.83
2018-12-20T02:59:58.134Z,23.47
2018-12-20T03:02:49.271Z,24.57
2018-12-20T03:05:39.914Z,21.73
2018-12-20T03:08:29.966Z,24.43
2018-12-20T03:11:20.568Z,23.33
2018-12-20T03:14:10.406Z,22.90
2018-12-20T03:17:00.351Z,21.30
2018-12-20T03:19:50.181Z,20.37
2018-12-20T03:22:40.831Z,20.73
2018-12-20T03:25:31.579Z,22.07
2018-12-20T03:28:21.541Z,23.67
2018-12-20T03:31:12.775Z,23.93
2018-12-20T03:34:03.266Z,23.40
2018-12-20T03:36:53.296Z,23.57
2018-12-20T03:39:44.137Z,27.40
2018-12-20T03:42:35.299Z,24.30
2018-12-20T03:45:29.153Z,20.83
2018-12-20T03:48:18.317Z,22.50
2018-12-20T03:51:08.942Z,22.40
2018-12-20T03:54:00.028Z,23.03
2018-12-20T03:56:50.829Z,25.90
2018-12-20T03:59:42.425Z,22.97
2018-12-20T04:02:32.665Z,25.90
2018-12-20T04:05:22.762Z,23.33
2018-12-20T04:08:12.638Z,25.37
2018-12-20T04:11:02.465Z,24.23
2018-12-20T04:13:52.307Z,22.37
2018-12-20T04:16:42.637Z,25.80
2018-12-20T04:19:33.038Z,22.50
2018-12-20T04:22:22.932Z,25.53
2018-12-20T04:25:12.803Z,22.80
2018-12-20T04:28:03.821Z,25.37
2018-12-20T04:30:54.653Z,25.47
2018-12-20T04:33:45.466Z,23.00
2018-12-20T04:36:35.363Z,25.73
2018-12-20T04:39:26.301Z,26.83
2018-12-20T04:42:17.394Z,23.20
2018-12-20T04:45:08.150Z,23.47
2018-12-20T04:47:57.938Z,25.97
2018-12-20T04:50:49.152Z,23.03
2018-12-20T04:53:39.864Z,25.43
2018-12-20T04:56:30.851Z,25.90
2018-12-20T04:59:21.688Z,22.97
2018-12-20T05:02:12.505Z,23.40
2018-12-20T05:05:03.863Z,25.43
2018-12-20T05:07:54.752Z,25.27
2018-12-20T05:10:45.299Z,25.33
2018-12-20T05:13:36.137Z,24.43
2018-12-20T05:16:26.356Z,23.20
2018-12-20T05:19:17.311Z,28.93
2018-12-20T05:22:08.334Z,24.63
2018-12-20T05:24:59.193Z,22.73
2018-12-20T05:27:49.502Z,23.33
2018-12-20T05:30:40.342Z,22.60
2018-12-20T05:33:31.118Z,20.27
2018-12-20T05:36:21.811Z,22.37
2018-12-20T05:39:12.385Z,23.03
2018-12-20T05:42:03.605Z,21.60
2018-12-20T05:44:54.567Z,23.83
2018-12-20T05:47:45.487Z,24.23
2018-12-20T05:50:36.307Z,24.13
2018-12-20T05:53:27.556Z,21.80
2018-12-20T05:56:18.121Z,20.40
2018-12-20T05:59:08.716Z,23.07
2018-12-20T06:01:58.653Z,21.63
2018-12-20T06:04:48.648Z,19.83
2018-12-20T06:07:38.478Z,21.57
2018-12-20T06:10:29.573Z,22.63
2018-12-20T06:13:19.577Z,23.87
2018-12-20T06:16:13.075Z,21.33
2018-12-20T06:19:02.250Z,20.90
2018-12-20T06:21:53.355Z,20.27
2018-12-20T06:24:44.227Z,18.03
2018-12-20T06:27:34.066Z,20.83
2018-12-20T06:30:24.765Z,21.93
2018-12-20T06:33:14.717Z,19.30
2018-12-20T06:36:05.286Z,20.63
2018-12-20T06:38:55.491Z,20.17
2018-12-20T06:41:46.133Z,20.53
2018-12-20T06:44:36.918Z,18.60
2018-12-20T06:47:26.808Z,19.10
2018-12-20T06:50:17.013Z,20.73
2018-12-20T06:53:07.825Z,17.83
2018-12-20T06:55:57.815Z,17.30
2018-12-20T06:58:48.501Z,21.43
2018-12-20T07:01:39.268Z,20.17
2018-12-20T07:04:29.963Z,17.60
2018-12-20T07:07:19.958Z,17.93
2018-12-20T07:10:10.363Z,19.80
2018-12-20T07:13:00.266Z,17.93
2018-12-20T07:15:50.081Z,21.00
2018-12-20T07:18:40.176Z,19.10
2018-12-20T07:21:30.825Z,19.30
2018-12-20T07:24:20.934Z,18.27
2018-12-20T07:27:10.900Z,18.73
2018-12-20T07:30:01.044Z,19.53
2018-12-20T07:32:51.657Z,18.10
2018-12-20T07:35:41.628Z,19.13
2018-12-20T07:38:31.300Z,18.40
2018-12-20T07:41:22.115Z,17.70
2018-12-20T07:44:12.021Z,18.23
2018-12-20T07:47:02.115Z,19.13
2018-12-20T07:49:53.095Z,19.07
2018-12-20T07:52:43.092Z,19.73
2018-12-20T07:55:32.979Z,19.47
2018-12-20T07:58:22.938Z,21.23
2018-12-20T08:01:12.677Z,20.33
2018-12-20T08:04:03.340Z,19.07
2018-12-20T08:06:53.951Z,19.37
2018-12-20T08:09:44.831Z,21.83
2018-12-20T08:12:34.732Z,20.40
2018-12-20T08:15:24.810Z,20.20
2018-12-20T08:18:15.561Z,18.97
2018-12-20T08:21:05.884Z,20.63
2018-12-20T08:23:55.954Z,19.90
2018-12-20T08:26:46.986Z,19.60
2018-12-20T08:29:37.515Z,21.70
2018-12-20T08:32:28.203Z,21.90
2018-12-20T08:35:18.161Z,19.20
2018-12-20T08:38:08.202Z,25.00
2018-12-20T08:40:58.126Z,21.50
2018-12-20T08:43:48.188Z,21.87
2018-12-20T08:46:41.127Z,20.17
2018-12-20T08:49:30.929Z,19.97
2018-12-20T08:52:21.064Z,19.27
2018-12-20T08:55:11.092Z,20.63
2018-12-20T08:58:01.739Z,20.27
2018-12-20T09:00:52.512Z,18.90
2018-12-20T09:03:43.176Z,24.77
2018-12-20T09:06:33.164Z,23.93
2018-12-20T09:09:23.956Z,22.70
2018-12-20T09:12:13.930Z,23.67
2018-12-20T09:15:03.775Z,23.83
2018-12-20T09:17:53.585Z,21.13
2018-12-20T09:20:43.374Z,20.77
2018-12-20T09:23:33.314Z,25.33
2018-12-20T09:26:23.115Z,22.40
2018-12-20T09:29:12.994Z,25.13
2018-12-20T09:32:03.033Z,24.67
2018-12-20T09:34:53.848Z,25.93
2018-12-20T09:37:43.799Z,21.63
2018-12-20T09:40:33.687Z,21.40
2018-12-20T09:43:25.025Z,23.03
2018-12-20T09:46:15.502Z,20.23
2018-12-20T09:49:05.302Z,23.73
2018-12-20T09:51:55.148Z,23.37
2018-12-20T09:54:45.435Z,22.70
2018-12-20T09:57:35.673Z,20.17
2018-12-20T10:00:26.366Z,22.40
2018-12-20T10:03:16.213Z,23.27
2018-12-20T10:06:05.918Z,25.20
2018-12-20T10:08:55.815Z,26.30
2018-12-20T10:11:45.659Z,23.03
2018-12-20T10:14:35.759Z,28.30
2018-12-20T10:17:25.604Z,25.77
2018-12-20T10:20:17.101Z,24.90
2018-12-20T10:23:07.854Z,28.60
2018-12-20T10:25:58.324Z,25.07
2018-12-20T10:28:47.994Z,24.60
2018-12-20T10:31:37.999Z,28.30
2018-12-20T10:34:27.759Z,23.87
2018-12-20T10:37:17.643Z,27.70
2018-12-20T10:40:07.588Z,27.37
2018-12-20T10:42:58.484Z,25.10
2018-12-20T10:45:49.084Z,28.60
2018-12-20T10:48:39.211Z,25.50
2018-12-20T10:51:29.903Z,25.17
2018-12-20T10:54:19.978Z,26.93
2018-12-20T10:57:09.950Z,25.83
2018-12-20T10:59:59.777Z,24.63
2018-12-20T11:02:54.459Z,23.80
2018-12-20T11:05:49.476Z,25.90
2018-12-20T11:08:43.568Z,26.13
2018-12-20T11:11:47.813Z,24.90
2018-12-20T11:14:38.111Z,24.53
2018-12-20T11:17:37.183Z,23.97
2018-12-20T11:20:22.151Z,26.57
2018-12-20T11:23:13.109Z,25.73
2018-12-20T11:26:03.057Z,24.10
2018-12-20T11:28:53.923Z,26.00
2018-12-20T11:31:43.887Z,26.40
2018-12-20T11:34:34.007Z,25.90
2018-12-20T11:37:23.765Z,22.90
2018-12-20T11:40:13.595Z,24.93
2018-12-20T11:43:03.342Z,28.23
2018-12-20T11:45:53.391Z,26.73
2018-12-20T11:48:44.101Z,29.27
2018-12-20T11:51:34.271Z,28.07
2018-12-20T11:54:24.039Z,25.83
2018-12-20T11:57:15.120Z,26.23
2018-12-20T12:00:05.612Z,28.40
2018-12-20T12:02:55.962Z,30.70
2018-12-20T12:05:46.004Z,28.17
2018-12-20T12:08:36.017Z,30.30
2018-12-20T12:11:25.993Z,29.20
2018-12-20T12:14:16.177Z,29.77
2018-12-20T12:17:06.357Z,32.70
2018-12-20T12:19:56.387Z,33.00
2018-12-20T12:22:46.256Z,34.57
2018-12-20T12:25:36.378Z,35.10
2018-12-20T12:28:26.170Z,39.03
2018-12-20T12:31:17.039Z,44.57
2018-12-20T12:34:06.855Z,44.40
2018-12-20T12:36:57.740Z,47.53
2018-12-20T12:39:48.551Z,42.70
2018-12-20T12:42:38.386Z,44.03
2018-12-20T12:45:28.346Z,43.37
2018-12-20T12:48:18.521Z,40.90
2018-12-20T12:51:09.023Z,41.33
2018-12-20T12:53:58.974Z,40.87
2018-12-20T12:56:48.903Z,37.47
2018-12-20T12:59:39.222Z,38.27
2018-12-20T13:02:29.730Z,34.13
2018-12-20T13:05:19.566Z,36.03
2018-12-20T13:08:09.489Z,34.83
2018-12-20T13:10:59.283Z,32.00
2018-12-20T13:13:49.170Z,33.10
2018-12-20T13:16:39.107Z,35.00
2018-12-20T13:19:28.902Z,32.57
2018-12-20T13:22:18.782Z,32.10
2018-12-20T13:25:09.266Z,32.27
2018-12-20T13:27:59.716Z,32.20
2018-12-20T13:30:49.577Z,32.00
2018-12-20T13:33:39.716Z,28.20
2018-12-20T13:36:30.423Z,32.57
2018-12-20T13:39:20.499Z,32.57
2018-12-20T13:42:11.021Z,28.13
2018-12-20T13:45:01.047Z,30.17
2018-12-20T13:47:51.078Z,29.60
2018-12-20T13:50:42.332Z,33.43
2018-12-20T13:53:32.874Z,27.63
2018-12-20T13:56:23.589Z,30.83
2018-12-20T13:59:13.683Z,31.73
2018-12-20T14:02:03.597Z,30.63
2018-12-20T14:04:54.550Z,27.37
2018-12-20T14:07:44.433Z,30.53
2018-12-20T14:10:34.202Z,26.40
2018-12-20T14:13:24.576Z,26.87
2018-12-20T14:16:15.025Z,25.83
2018-12-20T14:19:05.469Z,29.17
2018-12-20T14:21:58.549Z,33.70
2018-12-20T14:24:52.514Z,29.70
2018-12-20T14:27:42.654Z,32.10
2018-12-20T14:30:32.671Z,34.83
2018-12-20T14:33:22.485Z,29.67
2018-12-20T14:36:13.204Z,31.00
2018-12-20T14:39:04.758Z,30.07
2018-12-20T14:41:55.334Z,29.40
2018-12-20T14:44:46.080Z,28.07
2018-12-20T14:47:36.144Z,32.57
2018-12-20T14:50:25.867Z,30.40
2018-12-20T14:53:16.749Z,30.23
2018-12-20T14:56:06.790Z,27.60
2018-12-20T14:58:57.597Z,30.07
2018-12-20T15:01:47.446Z,28.00
2018-12-20T15:04:37.363Z,28.73
2018-12-20T15:07:27.267Z,29.23
2018-12-20T15:10:17.191Z,30.73
2018-12-20T15:13:07.928Z,27.63
2018-12-20T15:15:57.950Z,29.00
2018-12-20T15:18:48.118Z,32.33
2018-12-20T15:21:38.856Z,29.10
2018-12-20T15:24:30.527Z,32.70
2018-12-20T15:27:20.614Z,26.43
2018-12-20T15:30:11.553Z,27.33
2018-12-20T15:35:34.336Z,27.40
2018-12-20T15:38:24.942Z,29.80
2018-12-20T15:41:14.973Z,26.63
2018-12-20T15:44:04.935Z,29.03
2018-12-20T15:46:55.814Z,26.63
2018-12-20T15:49:45.636Z,29.00
2018-12-20T15:52:35.508Z,27.77
2018-12-20T15:55:25.362Z,31.17
2018-12-20T15:58:15.234Z,29.53
2018-12-20T16:01:05.082Z,29.30
2018-12-20T16:03:55.119Z,32.37
2018-12-20T16:06:45.109Z,27.23
2018-12-20T16:09:35.732Z,29.10
2018-12-20T16:12:27.282Z,30.80
2018-12-20T16:15:17.743Z,40.03
2018-12-20T16:18:08.654Z,30.30
2018-12-20T16:20:59.486Z,28.07
2018-12-20T16:23:49.204Z,27.33
2018-12-20T16:26:39.503Z,22.80
2018-12-20T16:29:30.321Z,26.10
2018-12-20T16:32:20.267Z,23.60
2018-12-20T16:35:10.203Z,27.87
2018-12-20T16:38:00.411Z,25.90
2018-12-20T16:40:50.348Z,92.70
2018-12-20T16:43:40.290Z,16.33
2018-12-20T16:46:30.411Z,23.10
2018-12-20T16:49:20.968Z,21.73
2018-12-20T16:52:10.887Z,22.23
2018-12-20T16:55:00.730Z,22.00
2018-12-20T16:57:51.581Z,20.87
2018-12-20T17:00:42.324Z,22.30
2018-12-20T17:03:33.017Z,21.67
2018-12-20T17:06:23.029Z,23.53
2018-12-20T17:09:12.931Z,22.50
2018-12-20T17:12:03.088Z,21.80
2018-12-20T17:14:53.752Z,20.43
2018-12-20T17:17:44.817Z,20.90
2018-12-20T17:20:35.618Z,19.47
2018-12-20T17:23:26.384Z,21.90
2018-12-20T17:26:16.283Z,19.03
2018-12-20T17:29:06.907Z,21.10
2018-12-20T17:31:56.654Z,19.13
2018-12-20T17:34:46.553Z,21.87
2018-12-20T17:37:37.325Z,18.60
2018-12-20T17:40:28.899Z,18.43
2018-12-20T17:43:19.103Z,17.37
2018-12-20T17:46:09.128Z,16.07
2018-12-20T17:48:59.858Z,17.27
2018-12-20T17:51:49.638Z,25.73
2018-12-20T17:54:39.566Z,20.00
2018-12-20T17:57:29.535Z,20.40
2018-12-20T18:00:19.350Z,19.97
2018-12-20T18:03:09.280Z,19.83
2018-12-20T18:06:00.050Z,20.10
2018-12-20T18:08:50.141Z,25.10
2018-12-20T18:11:40.051Z,21.57
2018-12-20T18:14:30.737Z,21.50
2018-12-20T18:17:20.644Z,30.47
2018-12-20T18:20:11.638Z,23.13
2018-12-20T18:23:02.596Z,22.70
2018-12-20T18:25:53.505Z,22.00
2018-12-20T18:28:43.354Z,23.13
2018-12-20T18:31:34.310Z,22.93
2018-12-20T18:34:24.395Z,21.30
2018-12-20T18:37:15.387Z,22.07
2018-12-20T18:40:07.587Z,22.13
2018-12-20T18:42:58.279Z,22.07
2018-12-20T18:45:48.999Z,22.17
2018-12-20T18:48:38.869Z,19.27
2018-12-20T18:51:28.746Z,18.83
2018-12-20T18:54:18.685Z,22.37
2018-12-20T18:57:09.337Z,21.20
2018-12-20T18:59:59.487Z,18.60
2018-12-20T19:02:50.339Z,22.83
2018-12-20T19:05:40.879Z,22.47
2018-12-20T19:08:31.202Z,19.40
2018-12-20T19:11:22.806Z,20.77
2018-12-20T19:14:12.735Z,21.97
2018-12-20T19:17:02.670Z,19.53
2018-12-20T19:19:56.368Z,20.77
2018-12-20T19:22:45.130Z,18.60
2018-12-20T19:25:36.083Z,18.90
2018-12-20T19:28:27.067Z,17.83
2018-12-20T19:31:17.572Z,22.27
2018-12-20T19:34:07.587Z,19.50
2018-12-20T19:36:58.312Z,20.73
2018-12-20T19:39:52.199Z,20.97
2018-12-20T19:42:42.143Z,22.43
2018-12-20T19:45:32.268Z,22.60
2018-12-20T19:48:22.954Z,24.00
2018-12-20T19:51:12.986Z,21.07
2018-12-20T19:54:03.801Z,18.20
2018-12-20T19:56:54.917Z,22.50
2018-12-20T19:59:45.803Z,20.67
2018-12-20T20:02:36.612Z,18.57
2018-12-20T20:05:26.572Z,22.60
2018-12-20T20:08:17.421Z,18.27
2018-12-20T20:11:08.191Z,19.57
2018-12-20T20:13:58.175Z,18.50
2018-12-20T20:16:50.977Z,18.93
2018-12-20T20:19:41.806Z,19.20
2018-12-20T20:22:32.471Z,18.77
2018-12-20T20:25:22.435Z,21.10
2018-12-20T20:28:13.242Z,20.67
2018-12-20T20:31:03.564Z,20.40
2018-12-20T20:33:54.076Z,18.73
2018-12-20T20:36:44.876Z,21.53
2018-12-20T20:39:35.515Z,18.57
2018-12-20T20:42:25.238Z,18.27
2018-12-20T20:45:15.193Z,20.97
2018-12-20T20:48:05.054Z,18.63
2018-12-20T20:50:54.967Z,19.47
2018-12-20T20:53:44.781Z,20.23
2018-12-20T20:56:34.741Z,18.07
2018-12-20T20:59:25.699Z,19.67
2018-12-20T21:02:15.432Z,17.83
2018-12-20T21:05:05.479Z,21.43
2018-12-20T21:07:55.170Z,20.00
2018-12-20T21:10:45.041Z,19.70
2018-12-20T21:13:34.837Z,20.83
2018-12-20T21:16:24.717Z,21.37
2018-12-20T21:19:14.573Z,22.10
2018-12-20T21:22:04.973Z,19.00
2018-12-20T21:24:55.363Z,21.67
2018-12-20T21:27:45.664Z,21.93
2018-12-20T21:30:35.332Z,20.47
2018-12-20T21:33:25.421Z,21.50
2018-12-20T21:36:15.014Z,20.67
2018-12-20T21:39:05.985Z,22.17
2018-12-20T21:41:56.696Z,21.53
2018-12-20T21:44:46.779Z,20.27
2018-12-20T21:47:37.542Z,21.93
2018-12-20T21:50:27.381Z,21.40
2018-12-20T21:53:17.342Z,21.87
2018-12-20T21:56:08.171Z,21.00
2018-12-20T21:58:58.144Z,21.27
2018-12-20T22:01:48.979Z,24.30
2018-12-20T22:04:38.910Z,21.97
2018-12-20T22:07:29.656Z,22.33
2018-12-20T22:10:20.448Z,20.63
2018-12-20T22:13:11.147Z,20.83
2018-12-20T22:16:01.397Z,21.00
2018-12-20T22:18:52.169Z,19.53
2018-12-20T22:21:42.841Z,21.10
2018-12-20T22:24:32.871Z,20.60
2018-12-20T22:27:22.630Z,22.13
2018-12-20T22:30:12.596Z,22.43
2018-12-20T22:33:03.354Z,21.40
2018-12-20T22:35:53.587Z,20.83
2018-12-20T22:38:43.856Z,23.57
2018-12-20T22:41:34.843Z,20.43
2018-12-20T22:44:24.893Z,21.60
2018-12-20T22:47:14.849Z,23.80
2018-12-20T22:50:06.013Z,21.57
2018-12-20T22:52:56.922Z,21.20
2018-12-20T22:55:46.758Z,22.00
2018-12-20T22:58:36.697Z,22.67
2018-12-20T23:01:26.469Z,20.50
2018-12-20T23:04:16.384Z,21.53
2018-12-20T23:07:06.242Z,22.47
2018-12-20T23:09:56.235Z,20.80
2018-12-20T23:12:46.137Z,21.40
2018-12-20T23:15:36.931Z,21.60
2018-12-20T23:18:26.729Z,20.40
2018-12-20T23:21:16.494Z,22.20
2018-12-20T23:24:06.413Z,21.60
2018-12-20T23:26:56.353Z,21.90
2018-12-20T23:29:47.590Z,24.33
2018-12-20T23:32:38.083Z,20.83
2018-12-20T23:35:27.882Z,25.47
2018-12-20T23:38:17.854Z,23.13
2018-12-20T23:41:07.727Z,20.87
2018-12-20T23:43:58.042Z,22.63
2018-12-20T23:46:48.719Z,20.40
2018-12-20T23:49:39.363Z,22.10
2018-12-20T23:52:29.207Z,23.10
2018-12-20T23:55:19.995Z,21.73
2018-12-20T23:58:09.744Z,25.33
